Time;durP1;ratioP1;P1;durP2;ratioP2;P2;SDS_P1;SDS_P2;PMS_P1;PMS_P2;Temp;Humidity;BMP_temperature;BMP_pressure;BME280_temperature;BME280_humidity;BME280_pressure;Samples;Min_cycle;Max_cycle;Signal;HPM_P1;HPM_P2
2023/09/04 00:00:08;;;;;;;8.38;4.28;;;;;;;13.47;100.00;100157.22;5158466;27;20449;-63
2023/09/04 00:02:34;;;;;;;6.45;4.30;;;;;;;13.42;100.00;100166.53;5158785;27;20051;-60
2023/09/04 00:04:59;;;;;;;7.57;4.15;;;;;;;13.43;100.00;100176.41;5158369;27;20053;-61
2023/09/04 00:07:25;;;;;;;5.03;3.75;;;;;;;13.35;100.00;100183.69;5158779;27;20050;-62
2023/09/04 00:09:51;;;;;;;8.93;3.85;;;;;;;13.37;100.00;100186.13;5158252;27;20051;-62
2023/09/04 00:12:18;;;;;;;5.75;3.63;;;;;;;13.33;100.00;100175.03;5158373;27;20103;-62
2023/09/04 00:14:44;;;;;;;5.95;3.90;;;;;;;13.35;100.00;100189.22;5158524;27;20086;-61
2023/09/04 00:17:10;;;;;;;6.88;4.05;;;;;;;13.31;100.00;100182.84;5158176;27;20138;-63
2023/09/04 00:19:36;;;;;;;6.53;3.60;;;;;;;13.29;100.00;100187.09;5158328;27;20050;-62
2023/09/04 00:22:03;;;;;;;4.50;3.70;;;;;;;13.27;100.00;100192.19;5158281;27;20062;-62
2023/09/04 00:24:28;;;;;;;8.10;3.78;;;;;;;13.27;100.00;100189.41;5158467;27;20046;-60
2023/09/04 00:26:54;;;;;;;6.68;3.60;;;;;;;13.26;100.00;100191.38;5158112;27;20054;-61
2023/09/04 00:29:21;;;;;;;6.85;3.80;;;;;;;13.24;100.00;100188.19;5158416;27;20043;-61
2023/09/04 00:31:47;;;;;;;4.70;4.05;;;;;;;13.25;100.00;100197.22;5158000;27;20137;-61
2023/09/04 00:34:13;;;;;;;10.23;4.72;;;;;;;13.20;100.00;100190.03;5158380;27;20315;-61
2023/09/04 00:36:39;;;;;;;5.65;3.92;;;;;;;13.20;100.00;100203.78;5158135;27;20443;-62
2023/09/04 00:39:04;;;;;;;6.20;3.95;;;;;;;13.16;100.00;100203.72;5158328;27;20138;-63
2023/09/04 00:41:30;;;;;;;11.10;3.80;;;;;;;13.15;100.00;100201.28;5158143;27;20082;-62
2023/09/04 00:43:56;;;;;;;4.70;3.22;;;;;;;13.09;100.00;100208.22;5158041;27;20427;-62
2023/09/04 00:46:24;;;;;;;4.70;3.58;;;;;;;13.06;100.00;100209.75;5158091;27;20051;-60
2023/09/04 00:48:50;;;;;;;7.65;3.83;;;;;;;13.07;100.00;100207.78;5157987;27;20103;-61
2023/09/04 00:51:16;;;;;;;7.43;4.28;;;;;;;13.01;100.00;100212.75;5160443;27;20057;-62
2023/09/04 00:53:43;;;;;;;5.40;4.07;;;;;;;13.03;100.00;100220.66;5161609;27;20051;-61
2023/09/04 00:56:12;;;;;;;6.68;4.43;;;;;;;12.90;100.00;100222.72;5161660;27;20385;-63
2023/09/04 00:58:38;;;;;;;5.97;3.50;;;;;;;12.85;100.00;100228.47;5161519;27;20145;-62
2023/09/04 01:01:05;;;;;;;6.50;4.00;;;;;;;12.85;100.00;100244.97;5161801;27;20051;-58
2023/09/04 01:03:32;;;;;;;6.00;3.75;;;;;;;12.81;100.00;100241.34;5161355;27;20047;-61
2023/09/04 01:05:58;;;;;;;6.18;4.10;;;;;;;12.77;100.00;100252.25;5161758;27;20133;-62
2023/09/04 01:08:24;;;;;;;5.85;3.72;;;;;;;12.77;100.00;100255.00;5161037;27;20364;-60
2023/09/04 01:10:58;;;;;;;5.72;3.55;;;;;;;12.73;100.00;100254.13;5161093;27;20187;-60
2023/09/04 01:13:30;;;;;;;7.45;4.22;;;;;;;12.68;100.00;100248.88;5161431;27;20154;-62
2023/09/04 01:15:57;;;;;;;6.43;3.97;;;;;;;12.66;100.00;100257.50;5161265;27;20042;-62
2023/09/04 01:18:23;;;;;;;5.32;3.67;;;;;;;12.69;100.00;100255.97;5161406;27;20043;-60
2023/09/04 01:21:00;;;;;;;9.95;4.22;;;;;;;12.70;100.00;100258.38;5161110;27;20141;-59
2023/09/04 01:23:25;;;;;;;11.32;5.32;;;;;;;12.64;100.00;100265.28;5161409;27;20103;-61
2023/09/04 01:25:57;;;;;;;9.63;4.28;;;;;;;12.66;100.00;100262.16;5161020;27;20437;-60
2023/09/04 01:28:31;;;;;;;6.32;4.18;;;;;;;12.64;100.00;100265.28;5161038;27;20051;-62
2023/09/04 01:31:03;;;;;;;9.87;4.33;;;;;;;12.52;100.00;100265.34;5161111;27;20188;-63
2023/09/04 01:33:31;;;;;;;8.85;3.80;;;;;;;12.50;100.00;100275.91;5160787;27;20292;-60
2023/09/04 01:36:02;;;;;;;7.93;4.13;;;;;;;12.45;100.00;100273.38;5160874;27;20404;-62
2023/09/04 01:38:28;;;;;;;7.97;4.25;;;;;;;12.49;100.00;100268.78;5161129;27;20061;-62
2023/09/04 01:40:54;;;;;;;5.63;3.38;;;;;;;12.46;100.00;100278.56;5161072;27;20309;-60
2023/09/04 01:43:20;;;;;;;6.05;3.53;;;;;;;12.46;100.00;100275.81;5160808;27;20071;-59
2023/09/04 01:45:46;;;;;;;13.00;4.38;;;;;;;12.47;100.00;100277.41;5161021;27;20046;-60
2023/09/04 01:48:12;;;;;;;8.82;4.18;;;;;;;12.41;100.00;100283.50;5160647;27;20054;-62
2023/09/04 01:50:38;;;;;;;7.30;4.07;;;;;;;12.40;100.00;100279.94;5160909;27;20047;-62
2023/09/04 01:53:05;;;;;;;7.57;4.03;;;;;;;12.31;100.00;100276.53;5160568;27;20470;-62
2023/09/04 01:55:30;;;;;;;5.43;3.92;;;;;;;12.38;100.00;100284.19;5160979;27;20468;-61
2023/09/04 01:57:56;;;;;;;5.07;3.67;;;;;;;12.30;100.00;100283.19;5160338;27;20135;-61
2023/09/04 02:00:22;;;;;;;6.03;3.88;;;;;;;12.24;100.00;100277.13;5160628;27;20153;-61
2023/09/04 02:02:49;;;;;;;8.35;4.25;;;;;;;12.28;100.00;100277.25;5159819;27;20324;-60
2023/09/04 02:05:15;;;;;;;5.25;3.92;;;;;;;12.27;100.00;100277.59;5160288;27;20438;-62
2023/09/04 02:07:41;;;;;;;6.55;4.07;;;;;;;12.28;100.00;100279.19;5160360;27;20051;-60
2023/09/04 02:10:09;;;;;;;5.30;3.67;;;;;;;12.27;100.00;100275.66;5160421;27;20093;-62
2023/09/04 02:12:34;;;;;;;6.50;3.75;;;;;;;12.29;100.00;100280.78;5160401;27;20095;-61
2023/09/04 02:15:00;;;;;;;7.88;4.35;;;;;;;12.25;100.00;100272.44;5160256;27;20043;-62
2023/09/04 02:17:26;;;;;;;7.20;4.40;;;;;;;12.16;100.00;100280.84;5160615;27;20320;-60
2023/09/04 02:19:52;;;;;;;8.30;4.40;;;;;;;12.08;100.00;100286.47;5160122;27;20133;-60
2023/09/04 02:22:18;;;;;;;5.90;4.22;;;;;;;11.97;100.00;100281.44;5160476;27;20491;-60
2023/09/04 02:24:47;;;;;;;7.97;4.18;;;;;;;12.08;100.00;100289.22;5159933;27;20078;-63
2023/09/04 02:27:13;;;;;;;7.60;4.25;;;;;;;12.07;100.00;100288.41;5159957;27;20051;-62
2023/09/04 02:29:39;;;;;;;13.55;5.65;;;;;;;12.08;100.00;100284.50;5159949;27;20105;-63
2023/09/04 02:32:05;;;;;;;5.10;3.92;;;;;;;12.10;100.00;100295.97;5160023;27;20046;-61
2023/09/04 02:34:31;;;;;;;12.63;4.13;;;;;;;12.07;100.00;100291.16;5159939;27;20401;-61
2023/09/04 02:36:58;;;;;;;5.97;4.20;;;;;;;11.94;100.00;100289.59;5159976;27;20092;-61
2023/09/04 02:39:24;;;;;;;7.15;3.85;;;;;;;12.02;100.00;100283.16;5160114;27;20051;-60
2023/09/04 02:41:50;;;;;;;4.85;3.85;;;;;;;11.92;100.00;100292.66;5159830;27;20062;-60
2023/09/04 02:44:16;;;;;;;7.13;4.28;;;;;;;11.97;100.00;100288.91;5160091;27;20143;-61
2023/09/04 02:46:42;;;;;;;5.70;3.85;;;;;;;11.97;100.00;100286.16;5159863;27;20434;-61
2023/09/04 02:49:08;;;;;;;5.45;3.65;;;;;;;11.93;100.00;100283.31;5160126;27;20050;-62
2023/09/04 02:51:34;;;;;;;6.13;4.20;;;;;;;11.92;100.00;100280.88;5159429;27;20090;-61
2023/09/04 02:54:00;;;;;;;5.05;3.88;;;;;;;11.92;100.00;100275.38;5159485;27;20082;-61
2023/09/04 02:56:26;;;;;;;10.82;4.40;;;;;;;11.90;100.00;100281.25;5159455;27;20133;-60
2023/09/04 02:58:52;;;;;;;9.88;4.80;;;;;;;11.90;100.00;100274.94;5159657;27;20066;-59
2023/09/04 03:01:18;;;;;;;6.57;4.03;;;;;;;11.91;100.00;100271.84;5159476;27;20124;-60
2023/09/04 03:03:46;;;;;;;6.47;4.03;;;;;;;11.85;100.00;100273.22;5159574;27;20392;-60
2023/09/04 03:06:12;;;;;;;6.78;4.40;;;;;;;11.80;100.00;100278.94;5159684;27;20133;-61
2023/09/04 03:08:38;;;;;;;6.47;4.00;;;;;;;11.81;100.00;100274.25;5159416;27;20130;-60
2023/09/04 03:11:09;;;;;;;6.57;3.90;;;;;;;11.81;100.00;100280.53;5159592;27;20046;-58
2023/09/04 03:13:35;;;;;;;7.97;4.68;;;;;;;11.79;100.00;100280.06;5158262;27;20141;-61
2023/09/04 03:16:01;;;;;;;6.70;4.05;;;;;;;11.76;100.00;100284.31;5159670;27;20133;-59
2023/09/04 03:18:27;;;;;;;7.97;4.00;;;;;;;11.80;100.00;100280.91;5159090;27;20078;-62
2023/09/04 03:20:55;;;;;;;5.15;3.75;;;;;;;11.73;100.00;100276.78;5159552;27;20474;-60
2023/09/04 03:23:21;;;;;;;6.38;3.90;;;;;;;11.66;100.00;100275.72;5159023;27;20407;-62
2023/09/04 03:25:47;;;;;;;7.13;4.13;;;;;;;11.75;100.00;100290.94;5158994;27;20137;-61
2023/09/04 03:28:13;;;;;;;5.47;3.83;;;;;;;11.73;100.00;100290.50;5159423;27;20086;-62
2023/09/04 03:30:39;;;;;;;7.97;4.00;;;;;;;11.75;100.00;100298.41;5158857;27;20057;-60
2023/09/04 03:33:05;;;;;;;12.32;5.13;;;;;;;11.70;100.00;100287.66;5159759;27;20133;-58
2023/09/04 03:35:31;;;;;;;7.95;4.07;;;;;;;11.77;100.00;100287.88;5158988;27;20108;-60
2023/09/04 03:37:57;;;;;;;8.75;4.43;;;;;;;11.78;100.00;100294.97;5159162;27;20057;-60
2023/09/04 03:40:25;;;;;;;8.45;4.40;;;;;;;11.79;100.00;100288.31;5158886;27;20074;-60
2023/09/04 03:42:52;;;;;;;7.47;3.70;;;;;;;11.69;100.00;100303.31;5159184;27;20068;-61
2023/09/04 03:45:18;;;;;;;5.47;4.22;;;;;;;11.77;100.00;100293.38;5158768;27;20056;-61
2023/09/04 03:47:45;;;;;;;7.20;3.95;;;;;;;11.80;100.00;100291.88;5159079;27;20423;-61
2023/09/04 03:50:12;;;;;;;4.72;3.60;;;;;;;11.83;100.00;100300.22;5158700;27;20137;-63
2023/09/04 03:52:40;;;;;;;6.47;3.60;;;;;;;11.86;100.00;100307.00;5159049;27;20066;-60
2023/09/04 03:55:07;;;;;;;7.43;3.90;;;;;;;11.88;100.00;100311.00;5158835;27;20054;-61
2023/09/04 03:57:34;;;;;;;8.95;3.83;;;;;;;11.84;100.00;100314.75;5158702;27;20149;-60
2023/09/04 04:00:00;;;;;;;4.10;3.42;;;;;;;11.91;100.00;100315.00;5158831;27;20149;-61
2023/09/04 04:02:26;;;;;;;7.90;4.18;;;;;;;12.06;100.00;100313.50;5158591;27;20106;-59
2023/09/04 04:04:52;;;;;;;10.15;3.28;;;;;;;12.55;100.00;100316.91;5158839;27;20445;-59
2023/09/04 04:07:18;;;;;;;5.45;3.80;;;;;;;13.25;100.00;100302.66;5158453;27;20050;-62
2023/09/04 04:09:47;;;;;;;5.97;4.32;;;;;;;13.75;100.00;100231.41;5158703;27;20073;-62
2023/09/04 04:12:14;;;;;;;5.68;3.67;;;;;;;14.24;100.00;100051.63;5158238;27;20054;-61
2023/09/04 04:14:40;;;;;;;9.95;3.83;;;;;;;14.64;100.00;99788.97;5158718;27;20070;-62
2023/09/04 04:17:08;;;;;;;6.65;3.38;;;;;;;15.14;100.00;99490.44;5158389;27;20309;-62
2023/09/04 04:19:34;;;;;;;4.40;3.40;;;;;;;15.50;100.00;99262.81;5158632;27;20050;-62
2023/09/04 04:22:00;;;;;;;6.40;3.38;;;;;;;15.92;100.00;99066.91;5158453;27;20432;-62
2023/09/04 04:24:27;;;;;;;7.38;3.00;;;;;;;16.30;100.00;98965.50;5158056;27;20082;-60
2023/09/04 04:26:53;;;;;;;4.15;3.22;;;;;;;16.61;100.00;98930.44;5158057;27;20062;-59
2023/09/04 04:29:19;;;;;;;4.18;3.28;;;;;;;16.96;100.00;98924.94;5157986;27;20137;-57
2023/09/04 04:31:46;;;;;;;4.72;3.25;;;;;;;17.27;100.00;98954.25;5158124;27;20065;-59
2023/09/04 04:34:12;;;;;;;8.43;3.42;;;;;;;17.55;100.00;98991.88;5158048;27;20107;-59
2023/09/04 04:36:38;;;;;;;4.60;4.18;;;;;;;17.92;100.00;99012.38;5158216;27;20340;-61
2023/09/04 04:39:04;;;;;;;4.55;3.15;;;;;;;18.00;100.00;99068.56;5157737;27;20047;-61
2023/09/04 04:41:31;;;;;;;3.30;2.72;;;;;;;18.34;100.00;99118.41;5158149;27;20441;-59
2023/09/04 04:43:57;;;;;;;5.85;2.88;;;;;;;18.57;100.00;99164.88;5157726;27;20050;-61
2023/09/04 04:46:23;;;;;;;5.93;3.35;;;;;;;18.96;100.00;99185.72;5158167;27;20145;-60
2023/09/04 04:48:49;;;;;;;10.18;3.90;;;;;;;19.07;100.00;99255.81;5157562;27;20137;-60
2023/09/04 04:51:15;;;;;;;17.50;7.32;;;;;;;19.34;100.00;99224.44;5157472;27;20061;-60
2023/09/04 04:53:41;;;;;;;11.02;4.90;;;;;;;19.72;100.00;99317.53;5157863;27;20050;-59
2023/09/04 04:56:07;;;;;;;10.57;5.68;;;;;;;19.85;100.00;99303.81;5157730;27;20061;-59
2023/09/04 04:58:33;;;;;;;7.97;4.15;;;;;;;20.18;100.00;99382.75;5157867;27;20057;-58
2023/09/04 05:01:00;;;;;;;9.52;4.13;;;;;;;20.56;100.00;99398.38;5157492;27;20061;-60
2023/09/04 05:03:25;;;;;;;8.35;3.55;;;;;;;20.45;100.00;99438.34;5157644;27;20053;-59
2023/09/04 05:05:51;;;;;;;4.45;3.28;;;;;;;20.73;100.00;99443.84;5157437;27;20141;-59
2023/09/04 05:08:17;;;;;;;6.47;3.03;;;;;;;20.99;100.00;99470.78;5157631;27;20108;-61
2023/09/04 05:10:43;;;;;;;5.03;3.83;;;;;;;21.09;100.00;99485.72;5157194;27;20080;-61
2023/09/04 05:13:09;;;;;;;9.90;3.90;;;;;;;20.97;100.00;99484.38;5157881;27;20050;-57
2023/09/04 05:15:35;;;;;;;10.43;4.75;;;;;;;21.45;100.00;99510.91;5157435;27;20122;-54
2023/09/04 05:18:02;;;;;;;9.77;4.43;;;;;;;21.66;100.00;99522.84;5157874;27;20522;-52
2023/09/04 05:20:28;;;;;;;12.30;4.63;;;;;;;21.67;100.00;99525.22;5157107;27;20106;-53
2023/09/04 05:22:54;;;;;;;11.07;4.15;;;;;;;21.95;100.00;99548.91;5157266;27;20054;-56
2023/09/04 05:25:20;;;;;;;9.23;3.40;;;;;;;22.41;100.00;99575.00;5157266;27;20109;-58
2023/09/04 05:27:46;;;;;;;7.88;3.58;;;;;;;22.56;100.00;99581.06;5156569;27;20047;-63
2023/09/04 05:30:12;;;;;;;5.05;3.72;;;;;;;22.74;100.00;99600.16;5156773;27;20050;-58
2023/09/04 05:32:37;;;;;;;6.32;3.63;;;;;;;23.08;100.00;99596.91;5157214;27;20061;-54
2023/09/04 05:35:05;;;;;;;11.82;3.42;;;;;;;23.36;100.00;99612.16;5157035;27;20047;-52
2023/09/04 05:37:31;;;;;;;6.18;3.45;;;;;;;23.54;100.00;99630.47;5159571;27;20129;-59
2023/09/04 05:39:57;;;;;;;10.23;4.95;;;;;;;23.90;100.00;99628.25;5160488;27;20129;-60
2023/09/04 05:42:23;;;;;;;7.63;3.13;;;;;;;23.85;100.00;99631.59;5160696;27;20396;-61
2023/09/04 05:44:49;;;;;;;10.55;3.60;;;;;;;23.99;100.00;99649.22;5160405;27;20051;-58
2023/09/04 05:47:15;;;;;;;12.10;4.07;;;;;;;24.40;100.00;99668.00;5160782;27;20074;-55
2023/09/04 05:49:41;;;;;;;12.30;3.67;;;;;;;24.24;100.00;99682.88;5160211;27;20498;-54
2023/09/04 05:52:07;;;;;;;10.60;3.58;;;;;;;24.31;100.00;99681.88;5160143;27;20051;-53
2023/09/04 05:54:33;;;;;;;10.63;3.92;;;;;;;24.36;100.00;99679.31;5160534;27;20377;-54
2023/09/04 05:56:59;;;;;;;12.82;3.63;;;;;;;24.46;100.00;99687.84;5160454;27;20046;-53
2023/09/04 05:59:26;;;;;;;14.90;4.15;;;;;;;24.89;100.00;99698.50;5160492;27;20112;-53
2023/09/04 06:01:52;;;;;;;10.38;3.15;;;;;;;24.81;100.00;99695.16;5160345;27;20178;-52
2023/09/04 06:04:17;;;;;;;24.42;4.28;;;;;;;24.96;100.00;99689.09;5160478;27;20383;-54
2023/09/04 06:06:43;;;;;;;12.60;3.30;;;;;;;25.28;97.98;99700.06;5159876;27;20377;-56
2023/09/04 06:09:10;;;;;;;9.00;4.40;;;;;;;25.56;98.66;99698.31;5160361;27;20072;-56
2023/09/04 06:11:36;;;;;;;12.80;4.22;;;;;;;25.81;97.95;99693.84;5160072;27;20046;-60
2023/09/04 06:14:02;;;;;;;10.20;3.20;;;;;;;26.02;95.89;99695.06;5160449;27;20107;-56
2023/09/04 06:16:28;;;;;;;6.97;2.63;;;;;;;26.31;89.55;99705.25;5159845;27;20046;-55
2023/09/04 06:18:54;;;;;;;8.20;3.20;;;;;;;26.45;85.67;99705.47;5160222;27;20047;-51
2023/09/04 06:21:20;;;;;;;7.95;2.90;;;;;;;26.66;83.04;99708.75;5159923;27;20065;-53
2023/09/04 06:23:46;;;;;;;9.82;3.90;;;;;;;26.96;83.48;99709.97;5159694;27;20396;-57
2023/09/04 06:26:13;;;;;;;16.00;3.92;;;;;;;26.74;86.76;99707.22;5159971;27;20047;-58
2023/09/04 06:28:39;;;;;;;10.73;3.55;;;;;;;27.13;87.01;99704.88;5159865;27;20050;-60
2023/09/04 06:31:05;;;;;;;12.00;3.25;;;;;;;27.06;82.30;99711.56;5159841;27;20103;-56
2023/09/04 06:33:33;;;;;;;11.88;3.50;;;;;;;27.40;80.83;99713.38;5159495;27;20046;-53
2023/09/04 06:35:59;;;;;;;8.00;3.42;;;;;;;27.20;79.63;99715.84;5159919;27;20431;-58
2023/09/04 06:38:25;;;;;;;13.50;3.40;;;;;;;26.84;79.71;99719.28;5159593;27;20134;-54
2023/09/04 06:40:57;;;;;;;11.85;3.55;;;;;;;27.22;79.25;99730.22;5160049;27;20070;-54
2023/09/04 06:43:23;;;;;;;16.13;3.17;;;;;;;27.20;78.78;99719.44;5159700;27;20082;-55
2023/09/04 06:45:49;;;;;;;8.50;2.88;;;;;;;27.11;79.74;99719.38;5159906;27;20425;-55
2023/09/04 06:48:15;;;;;;;13.18;3.70;;;;;;;27.74;76.91;99725.59;5159258;27;20082;-54
2023/09/04 06:50:41;;;;;;;7.80;3.05;;;;;;;27.80;75.30;99731.44;5159617;27;20084;-55
2023/09/04 06:53:07;;;;;;;10.77;2.92;;;;;;;27.84;73.86;99732.81;5159558;27;20315;-56
2023/09/04 06:55:33;;;;;;;10.80;3.47;;;;;;;27.90;75.01;99736.59;5159370;27;20369;-57
2023/09/04 06:57:59;;;;;;;7.25;2.83;;;;;;;28.40;70.70;99729.97;5159166;27;20050;-60
2023/09/04 07:00:26;;;;;;;6.47;2.50;;;;;;;28.58;68.51;99741.19;5158971;27;20053;-56
2023/09/04 07:02:52;;;;;;;3.20;2.53;;;;;;;28.68;67.35;99733.47;5159277;27;20070;-54
2023/09/04 07:05:18;;;;;;;11.75;2.72;;;;;;;28.68;67.83;99741.94;5159083;27;20046;-53
2023/09/04 07:07:47;;;;;;;6.85;2.50;;;;;;;28.78;67.22;99738.59;5159390;27;20057;-56
2023/09/04 07:10:13;;;;;;;10.13;2.83;;;;;;;28.82;67.19;99746.91;5159099;27;20057;-58
2023/09/04 07:12:40;;;;;;;7.40;3.00;;;;;;;28.67;68.23;99754.50;5159266;27;20059;-58
2023/09/04 07:15:07;;;;;;;6.03;2.67;;;;;;;28.18;66.08;99758.31;5158924;27;20134;-56
2023/09/04 07:17:34;;;;;;;6.32;2.80;;;;;;;28.77;67.27;99764.47;5159062;27;20047;-52
2023/09/04 07:20:00;;;;;;;8.15;2.97;;;;;;;29.03;66.45;99762.06;5158934;27;20137;-55
2023/09/04 07:22:26;;;;;;;5.28;3.00;;;;;;;29.06;68.22;99761.88;5158872;27;20047;-51
2023/09/04 07:24:52;;;;;;;8.43;2.83;;;;;;;28.73;68.31;99759.00;5159227;27;20057;-54
2023/09/04 07:27:18;;;;;;;8.82;2.80;;;;;;;28.69;68.68;99771.69;5158578;27;20042;-57
2023/09/04 07:29:44;;;;;;;6.50;2.90;;;;;;;28.99;66.89;99765.03;5158857;27;20059;-59
2023/09/04 07:32:09;;;;;;;8.73;3.00;;;;;;;28.94;67.76;99771.31;5158704;27;20141;-60
2023/09/04 07:34:36;;;;;;;10.68;3.83;;;;;;;29.34;66.12;99766.59;5159084;27;20054;-59
2023/09/04 07:37:02;;;;;;;11.18;3.58;;;;;;;29.47;65.88;99765.09;5158555;27;20351;-59
2023/09/04 07:39:28;;;;;;;8.73;3.60;;;;;;;28.96;67.96;99765.97;5159018;27;20055;-53
2023/09/04 07:41:55;;;;;;;8.50;3.63;;;;;;;28.63;68.65;99779.28;5158461;27;20078;-58
2023/09/04 07:44:21;;;;;;;8.93;3.75;;;;;;;28.26;70.48;99782.13;5158919;27;20364;-59
2023/09/04 07:46:47;;;;;;;8.75;4.63;;;;;;;28.58;67.94;99781.44;5158416;27;20416;-53
2023/09/04 07:49:13;;;;;;;10.60;4.38;;;;;;;28.81;69.50;99787.66;5158259;27;20145;-53
2023/09/04 07:51:40;;;;;;;5.35;3.80;;;;;;;28.74;66.23;99791.59;5158635;27;20047;-57
2023/09/04 07:54:06;;;;;;;6.57;3.33;;;;;;;28.87;65.84;99787.81;5158517;27;20050;-53
2023/09/04 07:56:32;;;;;;;3.53;2.88;;;;;;;28.95;66.31;99801.09;5158374;27;20087;-60
2023/09/04 07:58:58;;;;;;;11.75;2.88;;;;;;;29.24;64.40;99791.28;5157632;27;20051;-60
2023/09/04 08:01:24;;;;;;;5.80;2.63;;;;;;;29.39;64.23;99783.69;5158563;27;20133;-53
2023/09/04 08:03:49;;;;;;;6.35;2.38;;;;;;;29.58;62.52;99780.72;5158355;27;20145;-55
2023/09/04 08:06:15;;;;;;;4.25;2.50;;;;;;;29.51;63.44;99779.81;5158300;27;20055;-53
2023/09/04 08:08:42;;;;;;;6.82;2.17;;;;;;;29.77;63.97;99780.16;5158019;27;20050;-52
2023/09/04 08:11:08;;;;;;;4.35;2.15;;;;;;;29.73;61.88;99785.22;5158388;27;20051;-51
2023/09/04 08:13:34;;;;;;;5.75;2.42;;;;;;;29.83;62.10;99785.16;5158111;27;20328;-54
2023/09/04 08:16:00;;;;;;;6.13;2.40;;;;;;;29.75;60.86;99779.84;5158384;27;20054;-54
2023/09/04 08:18:25;;;;;;;2.70;1.65;;;;;;;29.93;61.19;99775.31;5157858;27;20476;-57
2023/09/04 08:20:51;;;;;;;6.30;2.60;;;;;;;30.12;60.48;99776.72;5158092;27;20502;-59
2023/09/04 08:23:17;;;;;;;8.15;2.22;;;;;;;30.00;59.18;99770.06;5157966;27;20054;-62
2023/09/04 08:25:44;;;;;;;4.85;2.30;;;;;;;29.64;59.38;99771.13;5157806;27;20074;-60
2023/09/04 08:28:10;;;;;;;3.08;2.17;;;;;;;29.15;59.12;99780.03;5157979;27;20320;-61
2023/09/04 08:30:36;;;;;;;6.95;2.38;;;;;;;29.70;60.08;99783.34;5157787;27;20043;-61
2023/09/04 08:33:02;;;;;;;6.13;1.80;;;;;;;30.02;59.17;99783.72;5157983;27;20059;-53
2023/09/04 08:35:29;;;;;;;8.82;2.95;;;;;;;29.28;60.24;99781.38;5157749;27;20358;-61
2023/09/04 08:37:55;;;;;;;4.43;2.25;;;;;;;29.18;60.22;99785.50;5157901;27;20046;-58
2023/09/04 08:40:21;;;;;;;5.47;2.20;;;;;;;29.90;58.93;99790.41;5157629;27;20074;-54
2023/09/04 08:42:49;;;;;;;2.83;2.15;;;;;;;30.18;58.68;99797.41;5157612;27;20058;-59
2023/09/04 08:45:17;;;;;;;5.75;1.90;;;;;;;30.36;57.03;99795.72;5157481;27;20051;-57
2023/09/04 08:47:43;;;;;;;2.95;2.08;;;;;;;30.40;56.22;99791.41;5157739;27;20085;-59
2023/09/04 08:50:10;;;;;;;2.67;2.30;;;;;;;30.43;56.61;99801.75;5157536;27;20323;-60
2023/09/04 08:52:37;;;;;;;5.05;4.00;;;;;;;30.66;57.58;99788.78;5157250;27;20103;-60
2023/09/04 08:55:04;;;;;;;5.20;2.20;;;;;;;30.72;56.87;99791.69;5157799;27;20078;-54
2023/09/04 08:57:31;;;;;;;2.40;2.00;;;;;;;30.32;58.04;99790.22;5157511;27;20050;-62
2023/09/04 08:59:58;;;;;;;4.80;2.10;;;;;;;29.35;59.86;99787.91;5157761;27;20388;-55
2023/09/04 09:02:24;;;;;;;1.88;1.77;;;;;;;29.13;59.13;99785.38;5157272;27;20141;-54
2023/09/04 09:04:51;;;;;;;2.67;2.30;;;;;;;29.14;59.92;99792.59;5157662;27;20043;-63
2023/09/04 09:07:20;;;;;;;2.53;2.05;;;;;;;29.68;59.25;99791.50;5157070;27;20104;-57
2023/09/04 09:09:50;;;;;;;3.42;1.80;;;;;;;29.69;57.64;99792.28;5157552;27;20138;-59
2023/09/04 09:12:16;;;;;;;2.75;2.30;;;;;;;28.73;57.42;99801.34;5159178;27;20141;-57
2023/09/04 09:14:41;;;;;;;3.60;1.95;;;;;;;28.81;58.08;99798.94;5161074;27;20047;-59
2023/09/04 09:17:10;;;;;;;3.80;2.30;;;;;;;28.06;61.20;99788.25;5161138;27;20214;-61
2023/09/04 09:19:38;;;;;;;2.63;1.80;;;;;;;28.81;58.92;99796.13;5161013;27;20133;-59
2023/09/04 09:22:12;;;;;;;5.47;2.13;;;;;;;29.12;57.67;99795.09;5161013;27;20046;-59
2023/09/04 09:24:51;;;;;;;3.03;2.15;;;;;;;29.05;59.16;99791.34;5160957;27;20046;-55
2023/09/04 09:27:18;;;;;;;2.20;2.00;;;;;;;29.16;59.77;99788.03;5160756;27;20412;-54
2023/09/04 09:29:46;;;;;;;2.20;2.00;;;;;;;28.99;59.04;99783.97;5160468;27;20042;-62
2023/09/04 09:32:12;;;;;;;2.70;2.50;;;;;;;29.19;59.97;99783.44;5160834;27;20075;-59
2023/09/04 09:34:39;;;;;;;3.85;1.90;;;;;;;29.02;59.74;99780.22;5160354;27;20090;-59
2023/09/04 09:37:07;;;;;;;8.40;2.70;;;;;;;29.89;58.57;99777.53;5161057;27;20345;-54
2023/09/04 09:39:34;;;;;;;3.50;3.20;;;;;;;29.85;58.18;99777.72;5160585;27;20066;-58
2023/09/04 09:42:00;;;;;;;4.07;2.60;;;;;;;29.99;57.86;99771.34;5160438;27;20050;-56
2023/09/04 09:44:29;;;;;;;5.15;2.22;;;;;;;30.35;58.98;99774.34;5160829;27;20111;-54
2023/09/04 09:46:55;;;;;;;3.38;2.13;;;;;;;30.44;56.32;99786.34;5160474;27;20053;-57
2023/09/04 09:49:22;;;;;;;5.70;4.57;;;;;;;30.33;57.75;99785.38;5160768;27;20043;-54
2023/09/04 09:51:53;;;;;;;2.17;1.70;;;;;;;29.85;56.61;99786.19;5160314;27;20145;-57
2023/09/04 09:54:33;;;;;;;2.13;1.70;;;;;;;29.04;56.55;99791.84;5160724;27;20066;-55
2023/09/04 09:57:00;;;;;;;2.50;1.95;;;;;;;29.26;57.55;99795.19;5160295;27;20050;-57
2023/09/04 09:59:26;;;;;;;3.45;1.98;;;;;;;29.13;56.02;99799.50;5160670;27;20070;-53
2023/09/04 10:01:52;;;;;;;3.08;1.85;;;;;;;28.64;56.71;99792.88;5160360;27;20141;-55
2023/09/04 10:04:21;;;;;;;1.90;1.80;;;;;;;28.26;59.78;99791.38;5160332;27;20427;-58
2023/09/04 10:06:50;;;;;;;2.05;1.60;;;;;;;27.65;60.60;99796.78;5160458;27;20099;-56
2023/09/04 10:09:21;;;;;;;2.65;1.95;;;;;;;27.53;63.55;99786.44;5159858;27;20082;-53
2023/09/04 10:11:53;;;;;;;2.72;1.90;;;;;;;26.85;62.24;99786.31;5160167;27;20055;-59
2023/09/04 10:14:25;;;;;;;2.58;2.00;;;;;;;27.37;61.55;99781.88;5160041;27;20087;-59
2023/09/04 10:16:56;;;;;;;1.95;1.80;;;;;;;27.87;61.82;99779.00;5160299;27;20103;-55
2023/09/04 10:19:27;;;;;;;4.35;1.90;;;;;;;28.06;61.32;99785.44;5159521;27;20090;-59
2023/09/04 10:22:00;;;;;;;4.82;2.38;;;;;;;27.98;59.95;99784.16;5159687;27;20141;-62
2023/09/04 10:24:34;;;;;;;5.73;2.20;;;;;;;28.26;59.34;99784.94;5159796;27;20146;-61
2023/09/04 10:27:05;;;;;;;3.92;2.15;;;;;;;28.10;57.79;99786.84;5159867;27;20050;-55
2023/09/04 10:29:35;;;;;;;3.83;1.95;;;;;;;28.37;58.65;99788.06;5160060;27;20051;-52
2023/09/04 10:32:02;;;;;;;2.75;1.67;;;;;;;28.65;57.72;99785.19;5159968;27;20065;-57
2023/09/04 10:34:29;;;;;;;1.85;1.75;;;;;;;28.60;58.24;99783.81;5159875;27;20137;-61
2023/09/04 10:36:56;;;;;;;5.53;2.30;;;;;;;28.15;58.58;99780.53;5159705;27;20126;-62
2023/09/04 10:39:22;;;;;;;2.78;1.83;;;;;;;28.37;57.39;99776.78;5159851;27;20137;-63
2023/09/04 10:41:48;;;;;;;3.97;1.80;;;;;;;28.65;56.57;99780.34;5159492;27;20066;-56
2023/09/04 10:44:44;;;;;;;2.25;1.92;;;;;;;28.22;57.17;99784.31;5159872;27;20047;-63
2023/09/04 10:47:10;;;;;;;4.32;2.20;;;;;;;27.98;57.22;99784.16;5159544;27;20112;-57
2023/09/04 10:49:37;;;;;;;8.38;2.92;;;;;;;28.50;57.88;99785.09;5159326;27;20050;-54
2023/09/04 10:52:05;;;;;;;4.13;2.00;;;;;;;29.01;57.22;99782.28;5159459;27;20059;-59
2023/09/04 10:54:31;;;;;;;4.72;1.88;;;;;;;29.06;56.49;99784.47;5159625;27;20301;-61
2023/09/04 10:56:58;;;;;;;4.63;1.90;;;;;;;29.24;56.56;99783.59;5159634;27;20178;-62
2023/09/04 10:59:25;;;;;;;2.40;2.20;;;;;;;29.39;56.72;99782.88;5159284;27;20137;-60
2023/09/04 11:01:51;;;;;;;3.63;2.30;;;;;;;29.23;55.99;99784.09;5159448;27;20203;-54
2023/09/04 11:04:30;;;;;;;4.88;2.08;;;;;;;29.11;55.68;99782.25;5159180;27;20057;-62
2023/09/04 11:07:25;;;;;;;3.67;2.25;;;;;;;28.38;55.75;99784.75;5159792;27;20056;-63
2023/09/04 11:09:53;;;;;;;2.05;1.88;;;;;;;28.44;55.65;99782.13;5151952;27;20050;-64
2023/09/04 11:12:20;;;;;;;2.63;1.77;;;;;;;27.86;56.72;99777.44;5159060;27;20050;-56
2023/09/04 11:14:46;;;;;;;2.60;2.05;;;;;;;27.22;58.55;99780.88;5159449;27;20145;-58
2023/09/04 11:17:15;;;;;;;2.65;2.10;;;;;;;26.84;58.90;99775.56;5159228;27;20138;-53
2023/09/04 11:19:41;;;;;;;4.28;2.60;;;;;;;26.82;58.79;99786.47;5159602;27;20392;-63
2023/09/04 11:22:15;;;;;;;3.42;2.53;;;;;;;26.15;58.48;99771.66;5159037;27;20050;-59